Marcel — ONDP — position and weather

sailwx.info

Track history (hours):
 
Tides and Currents Weather Stations Pressure Air Temp Water Temp Dewpoint Dewpoint Depression Visibility Wind Speed Wind Dir Waves Ship Positions

Marcel

Last reported at 2016-Jul-28 15:33 UTC. Time now 2016-Jul-29 21:40 UTC.
Position N 35°32' W 008°51'.

Length 88 m; draft 5.2 m.

Type: Cargo ship. MMSI: 205439000.

Date/timePositionNaut miles runAvg speedWind from/ knotsBaromVisibWave heightAir tempDewpointWater temp
2016-Jul-28 15:33N 35°32' W 008°51'19 9.2
2016-Jul-28 13:28N 35°48' W 009°04'9 8.7
2016-Jul-28 12:29N 35°56' W 009°08'20 8.9
2016-Jul-28 10:17N 36°13' W 009°20'6 8.8
2016-Jul-28 09:33N 36°18' W 009°24'70 8.8
2016-Jul-28 01:33N 37°25' W 009°50'244 9.0
2016-Jul-26 22:30N 41°28' W 010°05'220 7.1
2016-Jul-25 15:25N 43°39' W 006°05'  
2016-Jul-22 04:13N 43°38' W 005°58'371 8.1
2016-Jul-20 06:34N 49°38' W 003°46'8 7.5
2016-Jul-20 05:33N 49°41' W 003°36'14 7.0
2016-Jul-20 03:32N 49°49' W 003°18'9 8.7
2016-Jul-20 02:34N 49°53' W 003°06'10 9.9
2016-Jul-20 01:33N 49°58' W 002°53'1111.4
2016-Jul-20 00:33N 50°01' W 002°36'1111.2
2016-Jul-19 23:33N 50°04' W 002°19'10 9.8
2016-Jul-19 22:33N 50°07' W 002°04'8 8.0
2016-Jul-19 21:33N 50°09' W 001°52'7 6.9
2016-Jul-19 20:33N 50°11' W 001°42'7 7.1
2016-Jul-19 19:33N 50°13' W 001°31'7 7.5
2016-Jul-19 18:33N 50°15' W 001°20'12 9.0
2016-Jul-19 17:13N 50°19' W 001°02'2211.7
2016-Jul-19 15:22N 50°25' W 000°29'1012.5
2016-Jul-19 14:33N 50°28' W 000°14'1212.3
2016-Jul-19 13:33N 50°31' E 000°04'5210.4
2016-Jul-19 08:33N 50°58' E 001°15'1212.3
2016-Jul-19 07:33N 51°06' E 001°30'3310.8
2016-Jul-19 04:33N 51°21' E 002°16'1110.8
2016-Jul-19 03:33N 51°23' E 002°33'1010.5
2016-Jul-19 02:33N 51°22' E 002°50'10 9.8
2016-Jul-19 01:33N 51°22' E 003°05'9 9.1
2016-Jul-19 00:33N 51°24' E 003°20'8 7.7
2016-Jul-18 23:33N 51°25' E 003°32'7 6.9
2016-Jul-18 22:33N 51°24' E 003°42'5 5.3
2016-Jul-18 21:33N 51°20' E 003°49'2 2.0
2016-Jul-18 20:29N 51°18' E 003°50'0 0.0
2016-Jul-18 19:33N 51°18' E 003°50'0 0.0
2016-Jul-18 18:29N 51°18' E 003°50'0 0.0
2016-Jul-18 17:27N 51°18' E 003°50'0 0.0
2016-Jul-18 16:28N 51°18' E 003°50'  
Track history (hours):
 
Tides and Currents Weather Stations Pressure Air Temp Water Temp Dewpoint Dewpoint Depression Visibility Wind Speed Wind Dir Waves Ship Positions

Marcel

Last reported at 2016-Jul-28 15:33 UTC. Time now 2016-Jul-29 21:40 UTC.
Position N 35°32' W 008°51'.

Length 88 m; draft 5.2 m.

Type: Cargo ship. MMSI: 205439000.

Date/timePositionNaut miles runAvg speedWind from/ knotsBaromVisibWave heightAir tempDewpointWater temp
2016-Jul-28 15:33N 35°32' W 008°51'19 9.2
2016-Jul-28 13:28N 35°48' W 009°04'9 8.7
2016-Jul-28 12:29N 35°56' W 009°08'20 8.9
2016-Jul-28 10:17N 36°13' W 009°20'6 8.8
2016-Jul-28 09:33N 36°18' W 009°24'70 8.8
2016-Jul-28 01:33N 37°25' W 009°50'244 9.0
2016-Jul-26 22:30N 41°28' W 010°05'220 7.1
2016-Jul-25 15:25N 43°39' W 006°05'  
2016-Jul-22 04:13N 43°38' W 005°58'371 8.1
2016-Jul-20 06:34N 49°38' W 003°46'8 7.5
2016-Jul-20 05:33N 49°41' W 003°36'14 7.0
2016-Jul-20 03:32N 49°49' W 003°18'9 8.7
2016-Jul-20 02:34N 49°53' W 003°06'10 9.9
2016-Jul-20 01:33N 49°58' W 002°53'1111.4
2016-Jul-20 00:33N 50°01' W 002°36'1111.2
2016-Jul-19 23:33N 50°04' W 002°19'10 9.8
2016-Jul-19 22:33N 50°07' W 002°04'8 8.0
2016-Jul-19 21:33N 50°09' W 001°52'7 6.9
2016-Jul-19 20:33N 50°11' W 001°42'7 7.1
2016-Jul-19 19:33N 50°13' W 001°31'7 7.5
2016-Jul-19 18:33N 50°15' W 001°20'12 9.0
2016-Jul-19 17:13N 50°19' W 001°02'2211.7
2016-Jul-19 15:22N 50°25' W 000°29'1012.5
2016-Jul-19 14:33N 50°28' W 000°14'1212.3
2016-Jul-19 13:33N 50°31' E 000°04'5210.4
2016-Jul-19 08:33N 50°58' E 001°15'1212.3
2016-Jul-19 07:33N 51°06' E 001°30'3310.8
2016-Jul-19 04:33N 51°21' E 002°16'1110.8
2016-Jul-19 03:33N 51°23' E 002°33'1010.5
2016-Jul-19 02:33N 51°22' E 002°50'10 9.8
2016-Jul-19 01:33N 51°22' E 003°05'9 9.1
2016-Jul-19 00:33N 51°24' E 003°20'8 7.7
2016-Jul-18 23:33N 51°25' E 003°32'7 6.9
2016-Jul-18 22:33N 51°24' E 003°42'5 5.3
2016-Jul-18 21:33N 51°20' E 003°49'2 2.0
2016-Jul-18 20:29N 51°18' E 003°50'0 0.0
2016-Jul-18 19:33N 51°18' E 003°50'0 0.0
2016-Jul-18 18:29N 51°18' E 003°50'0 0.0
2016-Jul-18 17:27N 51°18' E 003°50'0 0.0
2016-Jul-18 16:28N 51°18' E 003°50'  

Dump ship's entire track history